createdAt,value
2023-01-29T00:00:11.806Z,15.07
2023-01-29T00:02:41.385Z,14.60
2023-01-29T00:05:25.993Z,14.43
2023-01-29T00:07:53.867Z,13.87
2023-01-29T00:10:20.357Z,14.83
2023-01-29T00:12:46.756Z,15.33
2023-01-29T00:15:13.215Z,14.57
2023-01-29T00:17:39.619Z,14.30
2023-01-29T00:20:06.310Z,14.30
2023-01-29T00:22:32.765Z,15.30
2023-01-29T00:24:59.340Z,15.43
2023-01-29T00:27:25.811Z,14.10
2023-01-29T00:30:09.618Z,15.00
2023-01-29T00:32:36.255Z,14.20
2023-01-29T00:35:02.952Z,14.70
2023-01-29T00:37:29.641Z,15.60
2023-01-29T00:39:56.225Z,15.30
2023-01-29T00:42:41.657Z,16.30
2023-01-29T00:45:08.273Z,14.70
2023-01-29T00:47:34.800Z,14.13
2023-01-29T00:50:01.937Z,15.53
2023-01-29T00:52:28.499Z,15.90
2023-01-29T00:54:56.438Z,15.57
2023-01-29T00:57:23.634Z,15.90
2023-01-29T00:59:50.127Z,14.67
2023-01-29T01:02:36.586Z,14.53
2023-01-29T01:05:03.652Z,15.63
2023-01-29T01:07:30.500Z,14.77
2023-01-29T01:10:15.727Z,15.40
2023-01-29T01:12:42.556Z,15.43
2023-01-29T01:15:09.443Z,15.57
2023-01-29T01:17:36.227Z,15.33
2023-01-29T01:20:03.677Z,14.40
2023-01-29T01:22:31.140Z,15.27
2023-01-29T01:24:57.665Z,14.40
2023-01-29T01:27:25.602Z,15.33
2023-01-29T01:29:52.149Z,14.83
2023-01-29T01:32:18.698Z,14.93
2023-01-29T01:34:45.399Z,14.53
2023-01-29T01:37:11.825Z,14.47
2023-01-29T01:39:38.223Z,14.33
2023-01-29T01:42:06.119Z,14.97
2023-01-29T01:44:53.377Z,15.23
2023-01-29T01:47:22.245Z,14.53
2023-01-29T01:49:48.664Z,15.20
2023-01-29T01:52:16.526Z,14.30
2023-01-29T01:54:43.738Z,15.23
2023-01-29T01:57:16.183Z,14.70
2023-01-29T01:59:44.643Z,15.07
2023-01-29T02:02:29.528Z,14.70
2023-01-29T02:05:15.042Z,15.03
2023-01-29T02:08:01.773Z,14.07
2023-01-29T02:10:29.632Z,14.93
2023-01-29T02:12:56.380Z,14.93
2023-01-29T02:15:22.820Z,14.53
2023-01-29T02:17:49.346Z,14.97
2023-01-29T02:20:24.423Z,14.70
2023-01-29T02:22:55.233Z,14.47
2023-01-29T02:25:21.736Z,12.43
2023-01-29T02:27:48.158Z,13.90
2023-01-29T02:30:26.630Z,13.63
2023-01-29T02:32:59.530Z,14.13
2023-01-29T02:35:29.784Z,13.93
2023-01-29T02:38:08.546Z,15.05
2023-01-29T02:41:01.171Z,13.27
2023-01-29T02:43:38.534Z,14.40
2023-01-29T02:46:11.033Z,13.80
2023-01-29T02:48:43.069Z,15.00
2023-01-29T02:51:21.580Z,13.80
2023-01-29T02:53:54.121Z,14.43
2023-01-29T02:56:28.054Z,14.43
2023-01-29T02:59:00.922Z,14.97
2023-01-29T03:01:30.870Z,14.27
2023-01-29T03:04:01.407Z,14.37
2023-01-29T03:06:32.130Z,14.68
2023-01-29T03:09:00.254Z,14.32
2023-01-29T03:11:31.139Z,14.70
2023-01-29T03:14:03.456Z,13.60
2023-01-29T03:16:45.575Z,14.87
2023-01-29T03:19:14.313Z,15.03
2023-01-29T03:21:55.089Z,15.07
2023-01-29T03:24:44.948Z,14.05
2023-01-29T03:27:31.257Z,14.93
2023-01-29T03:30:17.987Z,13.20
2023-01-29T03:32:44.945Z,14.20
2023-01-29T03:35:11.528Z,14.03
2023-01-29T03:37:40.622Z,14.83
2023-01-29T03:40:08.586Z,14.17
2023-01-29T03:42:47.166Z,15.17
2023-01-29T03:45:36.435Z,13.73
2023-01-29T03:48:15.206Z,15.10
2023-01-29T03:51:00.249Z,14.23
2023-01-29T03:53:35.829Z,15.57
2023-01-29T03:56:07.455Z,14.37
2023-01-29T03:58:45.849Z,13.80
2023-01-29T04:01:20.583Z,14.67
2023-01-29T04:03:52.149Z,14.33
2023-01-29T04:06:18.548Z,15.37
2023-01-29T04:08:55.505Z,13.83
2023-01-29T04:11:22.871Z,14.10
2023-01-29T04:13:57.393Z,13.63
2023-01-29T04:16:26.199Z,14.77
2023-01-29T04:18:54.325Z,16.30
2023-01-29T04:21:21.076Z,15.23
2023-01-29T04:23:47.525Z,14.03
2023-01-29T04:26:17.017Z,14.50
2023-01-29T04:28:53.502Z,14.73
2023-01-29T04:31:21.597Z,13.97
2023-01-29T04:33:59.003Z,14.53
2023-01-29T04:36:38.953Z,13.80
2023-01-29T04:39:05.479Z,14.73
2023-01-29T04:41:34.936Z,14.00
2023-01-29T04:44:04.245Z,13.83
2023-01-29T04:46:53.728Z,14.27
2023-01-29T04:49:44.819Z,14.10
2023-01-29T04:52:22.113Z,14.63
2023-01-29T04:54:51.375Z,14.33
2023-01-29T04:57:23.201Z,14.30
2023-01-29T04:59:53.543Z,14.50
2023-01-29T05:02:21.127Z,14.18
2023-01-29T05:04:48.433Z,13.70
2023-01-29T05:07:15.325Z,14.23
2023-01-29T05:09:43.687Z,13.70
2023-01-29T05:12:11.245Z,13.77
2023-01-29T05:14:39.639Z,13.63
2023-01-29T05:17:10.255Z,14.67
2023-01-29T05:19:36.745Z,12.85
2023-01-29T05:22:05.268Z,13.07
2023-01-29T05:24:31.839Z,13.87
2023-01-29T05:27:17.280Z,13.43
2023-01-29T05:29:45.947Z,13.60
2023-01-29T05:32:12.578Z,13.97
2023-01-29T05:34:39.045Z,13.27
2023-01-29T05:37:05.587Z,13.33
2023-01-29T05:39:32.015Z,13.53
2023-01-29T05:41:58.867Z,14.17
2023-01-29T05:44:25.309Z,13.50
2023-01-29T05:46:51.849Z,12.83
2023-01-29T05:49:18.495Z,14.20
2023-01-29T05:51:45.099Z,14.33
2023-01-29T05:54:12.382Z,13.70
2023-01-29T05:56:39.732Z,13.57
2023-01-29T05:59:07.353Z,14.23
2023-01-29T06:01:34.045Z,14.10
2023-01-29T06:04:00.572Z,13.17
2023-01-29T06:06:27.207Z,14.03
2023-01-29T06:08:53.714Z,12.93
2023-01-29T06:11:20.623Z,14.43
2023-01-29T06:13:47.899Z,12.73
2023-01-29T06:16:15.859Z,13.30
2023-01-29T06:18:42.559Z,13.03
2023-01-29T06:21:11.053Z,13.87
2023-01-29T06:23:37.540Z,14.43
2023-01-29T06:26:04.926Z,12.77
2023-01-29T06:28:31.553Z,13.53
2023-01-29T06:31:08.260Z,12.50
2023-01-29T06:33:42.985Z,13.47
2023-01-29T06:36:09.942Z,15.50
2023-01-29T06:38:36.407Z,14.50
2023-01-29T06:41:09.993Z,16.37
2023-01-29T06:43:36.642Z,13.77
2023-01-29T06:46:04.270Z,13.50
2023-01-29T06:48:31.117Z,13.77
2023-01-29T06:51:01.311Z,13.20
2023-01-29T06:53:27.699Z,13.47
2023-01-29T06:55:54.286Z,13.03
2023-01-29T06:58:21.840Z,13.83
2023-01-29T07:00:48.372Z,13.40
2023-01-29T07:03:14.797Z,14.07
2023-01-29T07:05:41.178Z,13.73
2023-01-29T07:08:08.782Z,13.13
2023-01-29T07:10:35.574Z,13.43
2023-01-29T07:13:02.067Z,13.87
2023-01-29T07:15:28.550Z,15.37
2023-01-29T07:17:58.526Z,14.07
2023-01-29T07:20:25.873Z,14.23
2023-01-29T07:22:52.370Z,13.57
2023-01-29T07:25:18.809Z,14.67
2023-01-29T07:27:45.266Z,15.00
2023-01-29T07:30:11.928Z,14.73
2023-01-29T07:32:38.364Z,15.53
2023-01-29T07:35:04.973Z,14.93
2023-01-29T07:37:31.396Z,16.43
2023-01-29T07:39:58.685Z,15.80
2023-01-29T07:42:25.128Z,16.17
2023-01-29T07:44:51.513Z,17.10
2023-01-29T07:47:17.908Z,16.53
2023-01-29T07:49:44.313Z,15.20
2023-01-29T07:52:10.747Z,16.63
2023-01-29T07:54:37.230Z,16.60
2023-01-29T07:57:03.780Z,16.20
2023-01-29T07:59:30.195Z,16.00
2023-01-29T08:01:56.683Z,15.60
2023-01-29T08:04:23.158Z,15.87
2023-01-29T08:06:49.633Z,14.53
2023-01-29T08:09:16.129Z,16.13
2023-01-29T08:11:42.611Z,16.00
2023-01-29T08:14:09.406Z,16.10
2023-01-29T08:16:35.943Z,16.27
2023-01-29T08:19:02.691Z,16.40
2023-01-29T08:21:29.134Z,16.07
2023-01-29T08:23:55.618Z,15.43
2023-01-29T08:26:22.144Z,16.13
2023-01-29T08:28:48.540Z,15.37
2023-01-29T08:31:20.686Z,16.73
2023-01-29T08:33:47.545Z,15.47
2023-01-29T08:36:13.992Z,15.67
2023-01-29T08:38:40.570Z,15.83
2023-01-29T08:41:07.174Z,15.80
2023-01-29T08:43:35.287Z,17.73
2023-01-29T08:46:03.096Z,14.97
2023-01-29T08:48:30.300Z,15.67
2023-01-29T08:51:00.273Z,15.20
2023-01-29T08:53:26.826Z,15.13
2023-01-29T08:55:53.975Z,15.20
2023-01-29T08:58:20.384Z,15.80
2023-01-29T09:00:46.923Z,15.50
2023-01-29T09:03:13.562Z,15.23
2023-01-29T09:05:40.558Z,15.53
2023-01-29T09:08:07.841Z,15.67
2023-01-29T09:10:34.652Z,15.73
2023-01-29T09:13:01.221Z,15.43
2023-01-29T09:15:27.991Z,15.57
2023-01-29T09:17:54.440Z,16.00
2023-01-29T09:20:20.956Z,15.57
2023-01-29T09:22:47.619Z,14.70
2023-01-29T09:25:14.474Z,16.77
2023-01-29T09:27:41.415Z,15.93
2023-01-29T09:30:08.148Z,15.57
2023-01-29T09:32:52.552Z,15.60
2023-01-29T09:35:20.259Z,15.50
2023-01-29T09:37:50.380Z,24.70
2023-01-29T09:40:23.104Z,14.17
2023-01-29T09:42:52.069Z,15.40
2023-01-29T09:45:24.954Z,14.47
2023-01-29T09:47:52.205Z,14.47
2023-01-29T09:50:30.722Z,14.30
2023-01-29T09:52:59.277Z,15.10
2023-01-29T09:55:30.796Z,14.83
2023-01-29T09:58:03.758Z,15.17
2023-01-29T10:00:37.629Z,14.87
2023-01-29T10:03:04.086Z,14.77
2023-01-29T10:05:39.797Z,14.57
2023-01-29T10:08:14.406Z,14.53
2023-01-29T10:10:49.729Z,14.87
2023-01-29T10:13:24.553Z,13.87
2023-01-29T10:16:08.636Z,13.40
2023-01-29T10:18:37.915Z,13.53
2023-01-29T10:21:14.306Z,13.73
2023-01-29T10:23:43.965Z,13.70
2023-01-29T10:26:11.494Z,13.57
2023-01-29T10:28:46.268Z,14.00
2023-01-29T10:31:15.733Z,12.90
2023-01-29T10:36:42.733Z,13.53
2023-01-29T10:39:17.664Z,14.13
2023-01-29T10:41:57.462Z,14.17
2023-01-29T10:44:23.833Z,14.50
2023-01-29T10:46:50.256Z,15.07
2023-01-29T10:49:25.328Z,15.83
2023-01-29T10:52:11.110Z,15.07
2023-01-29T10:54:40.301Z,14.57
2023-01-29T10:57:27.417Z,13.30
2023-01-29T11:00:07.143Z,14.27
2023-01-29T11:02:33.908Z,15.03
2023-01-29T11:05:00.789Z,14.77
2023-01-29T11:07:28.155Z,14.70
2023-01-29T11:09:57.763Z,15.83
2023-01-29T11:12:30.441Z,14.20
2023-01-29T11:15:00.548Z,14.50
2023-01-29T11:17:27.070Z,14.87
2023-01-29T11:19:57.139Z,15.33
2023-01-29T11:22:25.018Z,13.33
2023-01-29T11:25:10.791Z,14.20
2023-01-29T11:27:43.642Z,15.70
2023-01-29T11:30:20.678Z,14.70
2023-01-29T11:32:50.920Z,14.90
2023-01-29T11:35:17.390Z,14.43
2023-01-29T11:37:44.664Z,14.50
2023-01-29T11:40:20.580Z,13.93
2023-01-29T11:42:47.514Z,15.70
2023-01-29T11:45:34.923Z,16.80
2023-01-29T11:48:01.598Z,14.63
2023-01-29T11:50:29.631Z,14.13
2023-01-29T11:52:58.319Z,15.60
2023-01-29T11:55:41.019Z,14.07
2023-01-29T11:58:18.376Z,13.57
2023-01-29T12:00:50.533Z,14.57
2023-01-29T12:03:16.994Z,14.20
2023-01-29T12:05:53.304Z,14.23
2023-01-29T12:08:21.660Z,13.80
2023-01-29T12:10:48.388Z,14.43
2023-01-29T12:13:20.073Z,14.50
2023-01-29T12:15:47.186Z,14.83
2023-01-29T12:18:25.856Z,13.83
2023-01-29T12:21:02.339Z,13.50
2023-01-29T12:23:50.762Z,13.27
2023-01-29T12:26:27.592Z,15.13
2023-01-29T12:28:58.707Z,13.57
2023-01-29T12:31:43.989Z,14.20
2023-01-29T12:34:20.464Z,14.00
2023-01-29T12:36:55.308Z,14.43
2023-01-29T12:39:21.920Z,15.00
2023-01-29T12:41:51.584Z,13.90
2023-01-29T12:44:24.023Z,15.90
2023-01-29T12:46:53.125Z,14.10
2023-01-29T12:49:24.323Z,13.50
2023-01-29T12:54:19.220Z,14.13
2023-01-29T12:56:49.913Z,14.70
2023-01-29T12:59:16.378Z,14.07
2023-01-29T13:02:05.938Z,14.97
2023-01-29T13:04:39.116Z,14.23
2023-01-29T13:07:18.859Z,14.27
2023-01-29T13:09:48.243Z,14.60
2023-01-29T13:12:17.077Z,14.30
2023-01-29T13:15:00.455Z,14.10
2023-01-29T13:17:31.077Z,14.70
2023-01-29T13:19:59.816Z,14.77
2023-01-29T13:22:28.652Z,14.63
2023-01-29T13:25:04.816Z,15.00
2023-01-29T13:27:33.506Z,14.27
2023-01-29T13:30:01.575Z,14.17
2023-01-29T13:32:32.597Z,13.73
2023-01-29T13:35:13.074Z,13.50
2023-01-29T13:37:47.519Z,14.10
2023-01-29T13:40:28.631Z,13.43
2023-01-29T13:42:56.282Z,13.77
2023-01-29T13:45:31.067Z,14.17
2023-01-29T13:48:08.999Z,14.57
2023-01-29T13:50:39.158Z,14.50
2023-01-29T13:53:06.697Z,14.23
2023-01-29T13:55:37.479Z,14.60
2023-01-29T13:58:04.989Z,14.32
2023-01-29T14:00:34.502Z,15.00
2023-01-29T14:03:00.890Z,14.40
2023-01-29T14:05:30.370Z,16.10
2023-01-29T14:07:56.978Z,15.00
2023-01-29T14:10:23.887Z,13.57
2023-01-29T14:12:51.577Z,13.90
2023-01-29T14:15:21.539Z,14.87
2023-01-29T14:17:55.546Z,13.82
2023-01-29T14:20:39.733Z,13.00
2023-01-29T14:23:21.515Z,13.93
2023-01-29T14:25:48.175Z,15.40
2023-01-29T14:28:16.282Z,13.97
2023-01-29T14:30:47.047Z,13.93
2023-01-29T14:33:25.319Z,14.45
2023-01-29T14:35:52.495Z,13.77
2023-01-29T14:38:19.257Z,13.47
2023-01-29T14:40:46.614Z,13.80
2023-01-29T14:43:20.921Z,13.60
2023-01-29T14:45:48.528Z,13.13
2023-01-29T14:48:33.991Z,14.33
2023-01-29T14:51:07.973Z,14.80
2023-01-29T14:53:40.196Z,13.67
2023-01-29T14:58:36.571Z,13.20
2023-01-29T15:01:05.455Z,14.20
2023-01-29T15:03:52.194Z,13.87
2023-01-29T15:06:21.531Z,15.07
2023-01-29T15:08:55.272Z,13.87
2023-01-29T15:11:35.096Z,14.30
2023-01-29T15:14:23.960Z,14.43
2023-01-29T15:16:50.743Z,14.47
2023-01-29T15:19:23.094Z,12.43
2023-01-29T15:22:05.905Z,14.40
2023-01-29T15:24:32.440Z,14.07
2023-01-29T15:26:58.934Z,14.23
2023-01-29T15:29:26.811Z,13.63
2023-01-29T15:31:54.466Z,13.63
2023-01-29T15:34:21.070Z,13.80
2023-01-29T15:36:48.297Z,14.20
2023-01-29T15:39:21.465Z,14.37
2023-01-29T15:41:48.701Z,14.10
2023-01-29T15:44:16.675Z,14.07
2023-01-29T15:46:44.559Z,13.07
2023-01-29T15:49:33.948Z,14.57
2023-01-29T15:52:03.555Z,13.63
2023-01-29T15:54:33.573Z,15.43
2023-01-29T15:57:01.026Z,14.53
2023-01-29T15:59:31.135Z,14.80
2023-01-29T16:01:57.883Z,13.83
2023-01-29T16:04:26.964Z,13.93
2023-01-29T16:06:54.383Z,13.73
2023-01-29T16:09:23.632Z,15.57
2023-01-29T16:11:50.669Z,14.90
2023-01-29T16:14:20.475Z,14.73
2023-01-29T16:16:48.580Z,14.80
2023-01-29T16:19:23.030Z,15.13
2023-01-29T16:21:59.797Z,17.73
2023-01-29T16:24:26.965Z,15.40
2023-01-29T16:26:58.327Z,15.70
2023-01-29T16:29:29.977Z,16.03
2023-01-29T16:32:00.775Z,19.13
2023-01-29T16:34:37.745Z,21.05
2023-01-29T16:37:19.332Z,19.00
2023-01-29T16:39:47.270Z,18.80
2023-01-29T16:42:17.339Z,17.17
2023-01-29T16:44:49.764Z,16.93
2023-01-29T16:47:42.296Z,17.67
2023-01-29T16:50:17.846Z,22.63
2023-01-29T16:52:58.126Z,22.57
2023-01-29T16:55:25.552Z,21.50
2023-01-29T16:57:53.798Z,15.00
2023-01-29T17:00:23.405Z,16.30
2023-01-29T17:02:51.671Z,16.33
2023-01-29T17:05:22.562Z,18.23
2023-01-29T17:07:49.237Z,16.95
2023-01-29T17:10:17.629Z,17.47
2023-01-29T17:12:48.233Z,16.47
2023-01-29T17:15:31.739Z,16.85
2023-01-29T17:17:58.169Z,16.90
2023-01-29T17:20:24.884Z,17.13
2023-01-29T17:22:51.375Z,16.47
2023-01-29T17:25:18.795Z,16.10
2023-01-29T17:27:51.463Z,15.77
2023-01-29T17:30:19.415Z,15.13
2023-01-29T17:32:47.487Z,15.00
2023-01-29T17:35:15.473Z,16.07
2023-01-29T17:37:42.179Z,14.77
2023-01-29T17:40:40.763Z,15.67
2023-01-29T17:43:07.628Z,15.27
2023-01-29T17:45:34.152Z,17.00
2023-01-29T17:48:00.673Z,17.60
2023-01-29T17:50:28.315Z,16.40
2023-01-29T17:52:54.778Z,17.13
2023-01-29T17:55:21.234Z,15.50
2023-01-29T17:57:47.915Z,16.10
2023-01-29T18:00:19.431Z,16.10
2023-01-29T18:02:45.934Z,15.83
2023-01-29T18:05:13.135Z,17.27
2023-01-29T18:07:40.251Z,16.97
2023-01-29T18:10:07.328Z,17.60
2023-01-29T18:12:33.893Z,15.30
2023-01-29T18:15:00.379Z,15.93
2023-01-29T18:17:27.020Z,14.10
2023-01-29T18:19:55.481Z,15.50
2023-01-29T18:22:21.884Z,14.73
2023-01-29T18:24:48.387Z,17.10
2023-01-29T18:27:14.987Z,16.00
2023-01-29T18:29:41.598Z,16.17
2023-01-29T18:32:08.195Z,15.93
2023-01-29T18:34:34.643Z,16.43
2023-01-29T18:37:01.112Z,15.87
2023-01-29T18:39:27.793Z,16.63
2023-01-29T18:41:54.306Z,17.10
2023-01-29T18:44:20.730Z,16.67
2023-01-29T18:46:47.333Z,17.07
2023-01-29T18:49:13.877Z,17.13
2023-01-29T18:51:40.313Z,16.73
2023-01-29T18:54:06.828Z,17.27
2023-01-29T18:56:33.272Z,16.33
2023-01-29T18:58:59.713Z,16.50
2023-01-29T19:01:27.293Z,16.60
2023-01-29T19:03:54.189Z,16.77
2023-01-29T19:06:20.677Z,15.70
2023-01-29T19:08:47.392Z,16.67
2023-01-29T19:11:14.138Z,16.70
2023-01-29T19:13:42.519Z,15.57
2023-01-29T19:16:09.906Z,16.47
2023-01-29T19:18:36.771Z,17.80
2023-01-29T19:21:07.508Z,17.90
2023-01-29T19:23:34.039Z,18.98
2023-01-29T19:26:00.486Z,17.97
2023-01-29T19:28:26.942Z,16.90
2023-01-29T19:30:56.217Z,16.43
2023-01-29T19:33:22.713Z,17.03
2023-01-29T19:35:49.133Z,17.53
2023-01-29T19:38:19.206Z,17.07
2023-01-29T19:40:45.696Z,16.60
2023-01-29T19:43:15.199Z,16.63
2023-01-29T19:45:49.929Z,15.90
2023-01-29T19:48:21.221Z,15.00
2023-01-29T19:50:51.611Z,14.95
2023-01-29T19:53:18.071Z,15.95
2023-01-29T19:55:44.670Z,16.00
2023-01-29T19:58:11.540Z,16.23
2023-01-29T20:00:37.952Z,17.47
2023-01-29T20:03:04.443Z,16.53
2023-01-29T20:05:31.019Z,15.43
2023-01-29T20:07:57.445Z,16.07
2023-01-29T20:10:23.949Z,15.17
2023-01-29T20:12:50.349Z,16.53
2023-01-29T20:15:16.853Z,16.33
2023-01-29T20:17:45.483Z,16.90
2023-01-29T20:20:12.029Z,18.40
2023-01-29T20:22:38.467Z,16.60
2023-01-29T20:25:05.122Z,15.87
2023-01-29T20:27:31.619Z,18.10
2023-01-29T20:29:58.272Z,17.83
2023-01-29T20:32:24.718Z,14.93
2023-01-29T20:34:52.269Z,15.83
2023-01-29T20:37:19.396Z,16.60
2023-01-29T20:39:45.960Z,14.90
2023-01-29T20:42:12.653Z,14.90
2023-01-29T20:44:39.076Z,16.17
2023-01-29T20:47:05.589Z,16.37
2023-01-29T20:49:32.078Z,15.83
2023-01-29T20:51:58.509Z,16.13
2023-01-29T20:54:25.040Z,17.13
2023-01-29T20:56:51.634Z,16.17
2023-01-29T20:59:18.266Z,16.53
2023-01-29T21:01:45.469Z,16.20
2023-01-29T21:04:11.941Z,16.50
2023-01-29T21:06:38.360Z,16.43
2023-01-29T21:09:04.958Z,16.83
2023-01-29T21:11:33.329Z,16.73
2023-01-29T21:14:01.728Z,16.23
2023-01-29T21:16:28.374Z,17.33
2023-01-29T21:18:55.686Z,16.90
2023-01-29T21:21:22.219Z,16.10
2023-01-29T21:23:49.027Z,16.47
2023-01-29T21:26:15.500Z,15.33
2023-01-29T21:28:41.935Z,18.10
2023-01-29T21:31:10.146Z,16.97
2023-01-29T21:33:37.093Z,16.63
2023-01-29T21:36:03.806Z,17.37
2023-01-29T21:38:30.281Z,16.50
2023-01-29T21:41:00.696Z,16.83
2023-01-29T21:43:27.152Z,16.30
2023-01-29T21:45:57.788Z,17.23
2023-01-29T21:48:24.677Z,16.30
2023-01-29T21:50:51.682Z,16.20
2023-01-29T21:53:18.494Z,16.33
2023-01-29T21:55:45.746Z,16.53
2023-01-29T21:58:14.283Z,16.23
2023-01-29T22:00:41.065Z,16.40
2023-01-29T22:03:07.630Z,17.00
2023-01-29T22:05:34.263Z,18.23
2023-01-29T22:08:00.858Z,17.17
2023-01-29T22:10:28.515Z,16.93
2023-01-29T22:12:55.257Z,17.23
2023-01-29T22:15:23.769Z,17.60
2023-01-29T22:17:50.722Z,19.37
2023-01-29T22:20:17.665Z,18.30
2023-01-29T22:22:44.347Z,17.33
2023-01-29T22:25:11.084Z,18.83
2023-01-29T22:27:37.500Z,16.87
2023-01-29T22:30:04.991Z,17.17
2023-01-29T22:32:31.737Z,16.40
2023-01-29T22:34:58.179Z,16.80
2023-01-29T22:37:24.601Z,17.53
2023-01-29T22:39:50.992Z,17.80
2023-01-29T22:42:18.539Z,17.40
2023-01-29T22:44:45.087Z,17.30
2023-01-29T22:47:12.287Z,17.70
2023-01-29T22:49:38.866Z,17.00
2023-01-29T22:52:11.020Z,16.43
2023-01-29T22:54:41.841Z,15.73
2023-01-29T22:57:10.280Z,17.65
2023-01-29T22:59:36.993Z,17.20
2023-01-29T23:02:03.569Z,17.30
2023-01-29T23:04:30.110Z,17.67
2023-01-29T23:06:56.612Z,17.70
2023-01-29T23:09:23.059Z,18.57
2023-01-29T23:11:49.722Z,18.53
2023-01-29T23:14:16.229Z,18.23
2023-01-29T23:16:42.671Z,17.63
2023-01-29T23:19:10.334Z,16.80
2023-01-29T23:21:36.807Z,17.83
2023-01-29T23:24:03.452Z,16.87
2023-01-29T23:26:48.363Z,17.87
2023-01-29T23:29:14.851Z,16.67
2023-01-29T23:31:41.335Z,17.27
2023-01-29T23:34:07.878Z,17.07
2023-01-29T23:36:34.252Z,16.13
2023-01-29T23:39:00.807Z,18.07
2023-01-29T23:41:27.303Z,17.60
2023-01-29T23:43:53.788Z,17.00
2023-01-29T23:46:20.333Z,17.67
2023-01-29T23:48:46.820Z,16.93
2023-01-29T23:51:13.242Z,17.47
2023-01-29T23:53:39.859Z,17.23
2023-01-29T23:56:06.556Z,16.50
2023-01-29T23:58:33.438Z,18.33
